createdAt,value
2019-03-15T00:01:48.390Z,2.92
2019-03-15T00:04:19.756Z,2.98
2019-03-15T00:06:50.969Z,3.01
2019-03-15T00:09:24.647Z,3.02
2019-03-15T00:11:55.907Z,3.04
2019-03-15T00:14:27.299Z,3.01
2019-03-15T00:16:58.595Z,2.95
2019-03-15T00:19:29.913Z,2.70
2019-03-15T00:22:01.120Z,2.72
2019-03-15T00:24:32.345Z,2.66
2019-03-15T00:27:03.652Z,2.62
2019-03-15T00:29:34.753Z,2.40
2019-03-15T00:32:05.986Z,2.28
2019-03-15T00:34:38.247Z,2.21
2019-03-15T00:37:10.720Z,2.06
2019-03-15T00:39:41.987Z,2.05
2019-03-15T00:42:13.125Z,1.81
2019-03-15T00:44:44.419Z,1.83
2019-03-15T00:47:15.809Z,1.82
2019-03-15T00:49:47.153Z,1.87
2019-03-15T00:52:18.622Z,1.93
2019-03-15T00:54:49.882Z,2.03
2019-03-15T00:57:21.132Z,2.16
2019-03-15T00:59:52.432Z,2.13
2019-03-15T01:02:23.620Z,2.16
2019-03-15T01:04:55.070Z,2.17
2019-03-15T01:07:26.323Z,2.28
2019-03-15T01:09:57.607Z,2.36
2019-03-15T01:12:28.836Z,2.38
2019-03-15T01:15:00.039Z,2.39
2019-03-15T01:17:31.415Z,2.38
2019-03-15T01:20:02.900Z,2.41
2019-03-15T01:22:34.410Z,2.38
2019-03-15T01:25:07.845Z,2.26
2019-03-15T01:27:39.226Z,2.10
2019-03-15T01:30:12.299Z,2.05
2019-03-15T01:32:43.517Z,1.89
2019-03-15T01:35:14.831Z,1.90
2019-03-15T01:37:47.680Z,1.74
2019-03-15T01:40:19.026Z,1.55
2019-03-15T01:42:50.242Z,1.40
2019-03-15T01:45:21.627Z,1.28
2019-03-15T01:47:53.388Z,1.33
2019-03-15T01:50:24.666Z,1.38
2019-03-15T01:52:55.913Z,1.45
2019-03-15T01:55:27.222Z,1.38
2019-03-15T01:57:58.468Z,1.39
2019-03-15T02:00:29.721Z,1.31
2019-03-15T02:03:02.483Z,1.30
2019-03-15T02:05:33.977Z,1.23
2019-03-15T02:08:05.106Z,1.20
2019-03-15T02:10:37.489Z,1.28
2019-03-15T02:13:08.930Z,1.36
2019-03-15T02:15:40.091Z,1.38
2019-03-15T02:18:11.230Z,1.40
2019-03-15T02:20:42.477Z,1.45
2019-03-15T02:23:13.717Z,1.49
2019-03-15T02:25:45.107Z,1.51
2019-03-15T02:28:16.380Z,1.46
2019-03-15T02:30:47.628Z,1.44
2019-03-15T02:33:18.750Z,1.44
2019-03-15T02:35:50.023Z,1.47
2019-03-15T02:38:21.316Z,1.49
2019-03-15T02:40:52.570Z,1.49
2019-03-15T02:43:23.911Z,1.54
2019-03-15T02:45:55.208Z,1.59
2019-03-15T02:48:26.473Z,1.61
2019-03-15T02:50:57.676Z,1.60
2019-03-15T02:53:28.939Z,1.66
2019-03-15T02:56:00.145Z,1.60
2019-03-15T02:58:31.459Z,1.55
2019-03-15T03:01:02.677Z,1.57
2019-03-15T03:03:34.035Z,1.62
2019-03-15T03:06:05.562Z,1.65
2019-03-15T03:08:37.895Z,1.62
2019-03-15T03:11:09.088Z,1.57
2019-03-15T03:13:40.486Z,1.54
2019-03-15T03:16:12.735Z,1.54
2019-03-15T03:18:44.066Z,1.62
2019-03-15T03:21:15.542Z,1.68
2019-03-15T03:23:46.839Z,1.78
2019-03-15T03:26:18.078Z,1.83
2019-03-15T03:28:49.277Z,1.79
2019-03-15T03:31:20.495Z,1.71
2019-03-15T03:33:51.824Z,1.63
2019-03-15T03:36:23.089Z,1.54
2019-03-15T03:38:54.436Z,1.53
2019-03-15T03:41:25.758Z,1.56
2019-03-15T03:43:57.046Z,1.60
2019-03-15T03:46:28.349Z,1.69
2019-03-15T03:48:59.679Z,1.67
2019-03-15T03:51:30.966Z,1.62
2019-03-15T03:54:02.376Z,1.50
2019-03-15T03:56:33.586Z,1.54
2019-03-15T03:59:04.815Z,1.44
2019-03-15T04:01:36.099Z,1.43
2019-03-15T04:04:07.451Z,1.33
2019-03-15T04:06:38.743Z,1.26
2019-03-15T04:09:09.983Z,1.23
2019-03-15T04:11:54.236Z,1.19
2019-03-15T04:14:14.191Z,1.14
2019-03-15T04:16:45.547Z,1.13
2019-03-15T04:19:16.945Z,1.03
2019-03-15T04:21:48.215Z,0.94
2019-03-15T04:24:19.629Z,0.90
2019-03-15T04:26:50.854Z,0.78
2019-03-15T04:29:23.355Z,0.72
2019-03-15T04:31:54.687Z,0.66
2019-03-15T04:34:28.340Z,0.71
2019-03-15T04:36:59.901Z,0.82
2019-03-15T04:39:31.182Z,0.87
2019-03-15T04:42:02.430Z,0.95
2019-03-15T04:44:33.751Z,1.03
2019-03-15T04:47:04.991Z,1.10
2019-03-15T04:49:36.074Z,1.20
2019-03-15T04:52:07.216Z,1.29
2019-03-15T04:54:38.425Z,1.36
2019-03-15T04:57:09.556Z,1.44
2019-03-15T04:59:40.752Z,1.49
2019-03-15T05:02:11.788Z,1.49
2019-03-15T05:04:42.891Z,1.64
2019-03-15T05:07:14.204Z,1.74
2019-03-15T05:09:45.275Z,1.86
2019-03-15T05:12:16.531Z,1.96
2019-03-15T05:14:47.642Z,2.07
2019-03-15T05:17:18.789Z,2.19
2019-03-15T05:19:49.898Z,2.37
2019-03-15T05:22:21.146Z,2.54
2019-03-15T05:24:52.481Z,2.75
2019-03-15T05:27:24.845Z,2.89
2019-03-15T05:29:56.021Z,2.97
2019-03-15T05:32:27.180Z,3.05
2019-03-15T05:34:58.221Z,3.12
2019-03-15T05:37:29.227Z,3.31
2019-03-15T05:40:00.460Z,3.51
2019-03-15T05:42:31.651Z,3.65
2019-03-15T05:45:02.915Z,3.72
2019-03-15T05:47:34.020Z,3.87
2019-03-15T05:50:08.563Z,3.98
2019-03-15T05:52:39.714Z,4.15
2019-03-15T05:55:12.806Z,4.36
2019-03-15T05:57:44.018Z,4.52
2019-03-15T06:00:15.720Z,4.76
2019-03-15T06:02:46.966Z,5.05
2019-03-15T06:05:18.126Z,5.36
2019-03-15T06:07:49.288Z,5.63
2019-03-15T06:10:20.546Z,5.87
2019-03-15T06:12:51.682Z,6.04
2019-03-15T06:15:22.921Z,6.19
2019-03-15T06:17:54.066Z,6.19
2019-03-15T06:20:25.130Z,6.13
2019-03-15T06:22:56.373Z,6.18
2019-03-15T06:25:27.521Z,6.25
2019-03-15T06:27:58.784Z,6.22
2019-03-15T06:30:31.026Z,6.27
2019-03-15T06:33:02.226Z,6.18
2019-03-15T06:35:33.450Z,6.17
2019-03-15T06:38:04.599Z,6.19
2019-03-15T06:40:35.685Z,6.26
2019-03-15T06:43:07.212Z,6.16
2019-03-15T06:45:41.596Z,6.22
2019-03-15T06:48:11.367Z,6.11
2019-03-15T06:50:42.668Z,6.22
2019-03-15T06:53:13.761Z,6.27
2019-03-15T06:55:45.020Z,6.21
2019-03-15T06:58:16.073Z,6.17
2019-03-15T07:00:47.297Z,6.17
2019-03-15T07:03:18.478Z,6.12
2019-03-15T07:05:49.633Z,6.29
2019-03-15T07:08:21.574Z,6.34
2019-03-15T07:10:52.688Z,6.45
2019-03-15T07:13:23.862Z,6.55
2019-03-15T07:15:54.999Z,6.70
2019-03-15T07:18:26.236Z,6.87
2019-03-15T07:20:57.428Z,7.13
2019-03-15T07:23:28.689Z,7.40
2019-03-15T07:25:59.856Z,7.66
2019-03-15T07:28:31.146Z,7.72
2019-03-15T07:31:02.484Z,8.02
2019-03-15T07:33:33.731Z,8.28
2019-03-15T07:36:04.877Z,8.39
2019-03-15T07:38:36.020Z,8.53
2019-03-15T07:41:07.348Z,8.54
2019-03-15T07:43:38.525Z,8.49
2019-03-15T07:46:09.679Z,8.65
2019-03-15T07:48:40.916Z,8.79
2019-03-15T07:51:12.312Z,8.81
2019-03-15T07:53:43.608Z,9.03
2019-03-15T07:56:14.764Z,9.12
2019-03-15T07:58:45.982Z,9.28
2019-03-15T08:01:17.105Z,9.52
2019-03-15T08:03:48.681Z,9.61
2019-03-15T08:06:19.984Z,9.70
2019-03-15T08:08:53.521Z,9.80
2019-03-15T08:11:24.695Z,9.99
2019-03-15T08:13:55.930Z,10.26
2019-03-15T08:16:27.127Z,10.56
2019-03-15T08:18:58.411Z,10.80
2019-03-15T08:21:29.698Z,10.90
2019-03-15T08:24:01.018Z,11.57
2019-03-15T08:26:32.294Z,12.73
2019-03-15T08:29:03.684Z,13.50
2019-03-15T08:31:35.018Z,13.57
2019-03-15T08:34:06.311Z,13.99
2019-03-15T08:36:37.603Z,14.81
2019-03-15T08:39:10.585Z,15.01
2019-03-15T08:41:41.911Z,13.28
2019-03-15T08:44:13.264Z,13.28
2019-03-15T08:46:44.610Z,12.38
2019-03-15T08:49:16.122Z,12.00
2019-03-15T08:51:47.416Z,11.82
2019-03-15T08:54:19.824Z,11.79
2019-03-15T08:56:51.016Z,11.66
2019-03-15T08:59:22.275Z,11.73
2019-03-15T09:01:53.745Z,11.78
2019-03-15T09:04:25.087Z,12.06
2019-03-15T09:06:56.458Z,12.12
2019-03-15T09:09:27.686Z,12.14
2019-03-15T09:11:59.075Z,11.87
2019-03-15T09:14:30.942Z,11.48
2019-03-15T09:17:02.246Z,11.32
2019-03-15T09:19:33.470Z,10.90
2019-03-15T09:22:04.816Z,10.54
2019-03-15T09:24:36.121Z,10.48
2019-03-15T09:27:10.397Z,10.42
2019-03-15T09:29:40.276Z,10.31
2019-03-15T09:32:11.958Z,10.23
2019-03-15T09:34:43.193Z,9.84
2019-03-15T09:37:14.422Z,10.16
2019-03-15T09:39:45.571Z,10.37
2019-03-15T09:42:16.975Z,10.58
2019-03-15T09:44:48.265Z,10.37
2019-03-15T09:47:19.562Z,10.18
2019-03-15T09:49:50.763Z,10.24
2019-03-15T09:52:22.022Z,10.09
2019-03-15T09:54:53.526Z,10.07
2019-03-15T09:57:24.859Z,10.07
2019-03-15T09:59:56.061Z,10.05
2019-03-15T10:02:30.573Z,10.06
2019-03-15T10:05:10.066Z,9.87
2019-03-15T10:07:38.756Z,9.51
2019-03-15T10:10:13.770Z,9.46
2019-03-15T10:12:43.781Z,9.28
2019-03-15T10:15:15.780Z,9.05
2019-03-15T10:17:47.159Z,8.74
2019-03-15T10:20:18.288Z,8.68
2019-03-15T10:23:04.633Z,8.77
2019-03-15T10:25:22.495Z,8.46
2019-03-15T10:27:54.673Z,8.56
2019-03-15T10:30:26.959Z,8.62
2019-03-15T10:32:58.157Z,8.66
2019-03-15T10:35:29.213Z,8.27
2019-03-15T19:35:30.471Z,3.94
2019-03-15T19:38:01.922Z,3.86
2019-03-15T19:40:33.647Z,3.78
2019-03-15T19:43:06.419Z,3.77
2019-03-15T19:45:37.697Z,3.73
2019-03-15T19:48:09.395Z,3.74
2019-03-15T19:50:42.097Z,3.72
2019-03-15T19:53:13.241Z,3.71
2019-03-15T19:55:44.579Z,3.71
2019-03-15T19:58:15.802Z,3.63
2019-03-15T20:00:48.645Z,3.62
2019-03-15T20:03:19.745Z,3.60
2019-03-15T20:05:50.992Z,3.54
2019-03-15T20:08:22.362Z,3.46
2019-03-15T20:10:53.841Z,3.45
2019-03-15T20:13:25.216Z,3.48
2019-03-15T20:15:56.629Z,3.51
2019-03-15T20:18:28.957Z,3.45
2019-03-15T20:21:00.596Z,3.33
2019-03-15T20:23:33.001Z,3.26
2019-03-15T20:26:06.236Z,3.33
2019-03-15T20:28:39.426Z,3.38
2019-03-15T20:31:11.970Z,3.46
2019-03-15T20:33:43.400Z,3.52
2019-03-15T20:36:14.573Z,3.56
2019-03-15T20:38:45.787Z,3.54
2019-03-15T20:41:19.592Z,3.47
2019-03-15T20:43:49.852Z,3.38
2019-03-15T20:46:34.847Z,3.23
2019-03-15T20:48:54.064Z,3.23
2019-03-15T20:51:25.239Z,3.31
2019-03-15T20:53:56.483Z,3.34
2019-03-15T20:56:27.698Z,3.33
2019-03-15T20:58:58.875Z,3.33
2019-03-15T21:01:29.959Z,3.29
2019-03-15T21:04:01.189Z,3.23
2019-03-15T21:06:32.294Z,3.13
2019-03-15T21:09:04.352Z,3.10
2019-03-15T21:11:35.512Z,3.17
2019-03-15T21:14:06.596Z,3.18
2019-03-15T21:16:37.799Z,3.20
2019-03-15T21:19:09.185Z,3.19
2019-03-15T21:21:40.458Z,3.19
2019-03-15T21:24:13.975Z,3.17
2019-03-15T21:26:45.156Z,3.13
2019-03-15T21:29:16.284Z,2.93
2019-03-15T21:31:47.670Z,2.79
2019-03-15T21:34:19.755Z,2.85
2019-03-15T21:36:50.907Z,2.97
2019-03-15T21:39:23.552Z,3.02
2019-03-15T21:41:54.732Z,3.02
2019-03-15T21:44:25.956Z,3.03
2019-03-15T21:46:57.200Z,3.09
2019-03-15T21:49:28.514Z,3.10
2019-03-15T21:51:59.750Z,3.16
2019-03-15T21:54:31.009Z,3.18
2019-03-15T21:57:02.306Z,3.21
2019-03-15T21:59:33.578Z,3.17
2019-03-15T22:02:04.854Z,3.15
2019-03-15T22:04:36.175Z,3.02
2019-03-15T22:07:07.519Z,2.84
2019-03-15T22:09:38.773Z,2.68
2019-03-15T22:12:10.066Z,2.58
2019-03-15T22:14:41.396Z,2.63
2019-03-15T22:17:12.611Z,2.72
2019-03-15T22:19:45.268Z,2.72
2019-03-15T22:22:16.604Z,2.64
2019-03-15T22:24:47.855Z,2.59
2019-03-15T22:27:19.191Z,2.63
2019-03-15T22:29:53.799Z,2.62
2019-03-15T22:32:24.410Z,2.48
2019-03-15T22:34:55.613Z,2.47
2019-03-15T22:37:26.884Z,2.39
2019-03-15T22:39:58.278Z,2.34
2019-03-15T22:42:29.618Z,2.28
2019-03-15T22:45:00.822Z,2.27
2019-03-15T22:47:32.199Z,2.22
2019-03-15T22:50:03.503Z,2.20
2019-03-15T22:52:34.900Z,2.16
2019-03-15T22:55:07.971Z,2.06
2019-03-15T22:57:39.252Z,2.00
2019-03-15T23:00:21.554Z,1.82
2019-03-15T23:02:54.416Z,1.55
2019-03-15T23:05:26.352Z,1.65
2019-03-15T23:07:57.544Z,1.73
2019-03-15T23:10:28.932Z,1.72
2019-03-15T23:13:00.125Z,1.74
2019-03-15T23:15:31.834Z,1.71
2019-03-15T23:18:03.121Z,1.83
2019-03-15T23:20:34.371Z,1.78
2019-03-15T23:23:06.536Z,1.88
2019-03-15T23:25:37.910Z,2.17
2019-03-15T23:28:09.266Z,2.33
2019-03-15T23:30:40.545Z,2.43
2019-03-15T23:33:12.020Z,2.50
2019-03-15T23:35:53.447Z,2.58
2019-03-15T23:38:16.327Z,2.63
2019-03-15T23:40:47.697Z,2.66
2019-03-15T23:43:19.007Z,2.71
2019-03-15T23:45:50.167Z,2.76
2019-03-15T23:48:23.029Z,2.83
2019-03-15T23:50:54.142Z,2.91
2019-03-15T23:53:25.431Z,2.96
2019-03-15T23:55:56.709Z,3.00
2019-03-15T23:58:28.190Z,2.99
